Time;durP1;ratioP1;P1;durP2;ratioP2;P2;SDS_P1;SDS_P2;PMS_P1;PMS_P2;Temp;Humidity;BMP_temperature;BMP_pressure;BME280_temperature;BME280_humidity;BME280_pressure;Samples;Min_cycle;Max_cycle;Signal;HPM_P1;HPM_P2
2021/08/16 00:01:04;;;;;;;7.67;3.30;;;18.10;99.90;;;;;;5009624;28;20199;-78
2021/08/16 00:03:30;;;;;;;4.13;2.90;;;18.00;99.90;;;;;;4993333;28;20200;-77
2021/08/16 00:05:55;;;;;;;6.87;3.00;;;18.00;99.90;;;;;;4993489;28;20191;-78
2021/08/16 00:08:21;;;;;;;6.53;2.80;;;18.00;99.90;;;;;;4993334;28;20191;-77
2021/08/16 00:10:46;;;;;;;5.47;2.53;;;18.00;99.90;;;;;;4976855;28;20215;-77
2021/08/16 00:13:12;;;;;;;5.00;2.77;;;17.90;99.90;;;;;;5009666;28;20635;-77
2021/08/16 00:15:37;;;;;;;5.97;2.50;;;17.90;99.90;;;;;;4993354;28;20595;-77
2021/08/16 00:18:03;;;;;;;6.07;2.77;;;17.90;99.90;;;;;;5009531;28;20184;-77
2021/08/16 00:20:29;;;;;;;4.83;2.60;;;17.90;99.90;;;;;;5009298;28;20181;-78
2021/08/16 00:22:55;;;;;;;3.07;2.17;;;17.90;99.90;;;;;;4976882;28;20610;-77
2021/08/16 00:25:21;;;;;;;6.27;2.70;;;17.80;99.90;;;;;;4976787;28;20304;-77
2021/08/16 00:27:46;;;;;;;3.27;2.30;;;17.90;99.90;;;;;;4993068;28;20200;-77
2021/08/16 00:30:12;;;;;;;4.40;2.10;;;17.90;99.90;;;;;;4993779;28;20254;-77
2021/08/16 00:32:38;;;;;;;5.47;2.37;;;17.90;99.90;;;;;;5009034;28;20263;-78
2021/08/16 00:35:03;;;;;;;5.63;2.43;;;17.80;99.90;;;;;;4992692;28;20184;-78
2021/08/16 00:37:29;;;;;;;3.67;2.80;;;17.80;99.90;;;;;;4976537;28;20184;-77
2021/08/16 00:39:54;;;;;;;5.20;2.77;;;17.90;99.90;;;;;;4992562;28;20234;-77
2021/08/16 00:42:20;;;;;;;5.73;2.77;;;17.90;99.90;;;;;;4992851;28;20271;-77
2021/08/16 00:44:45;;;;;;;3.67;2.57;;;17.90;99.90;;;;;;4992595;28;20207;-77
2021/08/16 00:47:11;;;;;;;4.00;3.00;;;17.90;99.90;;;;;;5009133;28;20374;-77
2021/08/16 00:49:37;;;;;;;5.33;2.83;;;17.80;99.90;;;;;;4992274;28;20177;-78
2021/08/16 00:52:03;;;;;;;5.73;3.10;;;17.80;99.90;;;;;;4976202;28;20297;-78
2021/08/16 00:54:29;;;;;;;4.77;2.47;;;17.70;99.90;;;;;;4992432;28;20747;-77
2021/08/16 00:56:54;;;;;;;4.63;3.10;;;17.70;99.90;;;;;;4993052;28;20284;-77
2021/08/16 00:59:21;;;;;;;6.27;3.20;;;17.70;99.90;;;;;;4975977;28;20274;-78
2021/08/16 01:01:47;;;;;;;5.57;3.27;;;17.70;99.90;;;;;;4992390;28;20259;-77
2021/08/16 01:04:13;;;;;;;4.77;3.30;;;17.70;99.90;;;;;;4992062;28;20262;-78
2021/08/16 01:06:39;;;;;;;5.40;3.57;;;17.70;99.90;;;;;;4992381;28;20224;-78
2021/08/16 01:09:05;;;;;;;4.60;3.50;;;17.70;99.90;;;;;;4992168;28;20235;-77
2021/08/16 01:11:32;;;;;;;6.10;3.50;;;17.60;99.90;;;;;;4992248;28;20706;-77
2021/08/16 01:13:58;;;;;;;6.47;3.37;;;17.60;99.90;;;;;;4975490;28;20211;-77
2021/08/16 01:16:23;;;;;;;5.03;3.70;;;17.60;99.90;;;;;;5008369;28;20172;-77
2021/08/16 01:18:49;;;;;;;8.67;3.80;;;17.50;99.90;;;;;;4991767;28;20207;-77
2021/08/16 01:21:15;;;;;;;7.47;3.80;;;17.50;99.90;;;;;;4975457;28;20184;-78
2021/08/16 01:23:41;;;;;;;5.33;3.77;;;17.40;99.90;;;;;;4975621;28;20203;-77
2021/08/16 01:26:07;;;;;;;6.10;3.40;;;17.40;99.90;;;;;;4975804;28;20190;-78
2021/08/16 01:28:32;;;;;;;6.70;3.77;;;17.40;99.90;;;;;;5008218;28;20180;-77
2021/08/16 01:31:03;;;;;;;5.13;3.43;;;17.40;99.90;;;;;;4991429;28;20620;-77
2021/08/16 01:33:29;;;;;;;6.77;4.00;;;17.30;99.90;;;;;;4992031;28;20196;-77
2021/08/16 01:35:54;;;;;;;7.57;4.37;;;17.20;99.90;;;;;;4975627;28;20215;-77
2021/08/16 01:38:21;;;;;;;5.23;3.83;;;17.20;99.90;;;;;;5008955;28;20183;-77
2021/08/16 01:40:47;;;;;;;7.13;3.60;;;17.20;99.90;;;;;;4975089;28;20188;-77
2021/08/16 01:43:12;;;;;;;5.27;3.67;;;17.20;99.90;;;;;;4991657;28;20206;-77
2021/08/16 01:45:38;;;;;;;4.97;4.03;;;17.20;99.90;;;;;;4991590;28;20188;-77
2021/08/16 01:48:04;;;;;;;6.43;4.10;;;17.30;99.90;;;;;;4975449;28;20403;-77
2021/08/16 01:50:30;;;;;;;5.13;3.70;;;17.30;99.90;;;;;;5007512;28;20306;-77
2021/08/16 01:52:55;;;;;;;7.87;4.03;;;17.30;99.90;;;;;;4992627;28;20207;-77
2021/08/16 01:55:21;;;;;;;6.17;4.10;;;17.40;99.90;;;;;;4975412;28;20187;-77
2021/08/16 01:57:47;;;;;;;6.37;4.00;;;17.30;99.90;;;;;;4975413;28;20571;-77
2021/08/16 02:00:13;;;;;;;5.80;4.20;;;17.30;99.90;;;;;;4991044;28;20259;-77
2021/08/16 02:02:39;;;;;;;6.40;4.40;;;17.40;99.90;;;;;;4991478;28;20243;-77
2021/08/16 02:05:05;;;;;;;6.40;4.30;;;17.50;99.90;;;;;;4991464;28;20176;-77
2021/08/16 02:07:30;;;;;;;10.07;4.43;;;17.40;99.90;;;;;;4991356;28;20719;-78
2021/08/16 02:09:56;;;;;;;6.23;4.40;;;17.50;99.90;;;;;;4990998;28;20187;-77
2021/08/16 02:12:21;;;;;;;7.40;4.50;;;17.40;99.90;;;;;;4974945;28;20218;-77
2021/08/16 02:14:47;;;;;;;6.67;4.33;;;17.50;99.90;;;;;;4991242;28;20275;-77
2021/08/16 02:17:12;;;;;;;7.30;4.03;;;17.40;99.90;;;;;;5007871;28;20215;-77
2021/08/16 02:19:38;;;;;;;7.53;4.13;;;17.50;99.90;;;;;;4991108;28;20283;-77
2021/08/16 02:22:03;;;;;;;10.83;4.07;;;17.40;99.90;;;;;;4991106;28;20213;-77
2021/08/16 02:24:29;;;;;;;10.70;4.37;;;17.30;99.90;;;;;;4991406;28;20619;-77
2021/08/16 02:26:54;;;;;;;11.17;4.17;;;17.30;99.90;;;;;;5011361;28;20555;-77
2021/08/16 02:29:20;;;;;;;14.17;4.07;;;17.30;99.90;;;;;;4994899;28;20636;-78
2021/08/16 02:31:46;;;;;;;13.27;5.13;;;17.30;99.90;;;;;;5011334;28;20695;-77
2021/08/16 02:34:11;;;;;;;14.47;4.70;;;17.20;99.90;;;;;;5011490;28;20196;-77
2021/08/16 02:36:37;;;;;;;11.87;4.63;;;17.20;99.90;;;;;;4996146;28;20259;-77
2021/08/16 02:39:03;;;;;;;11.17;5.20;;;17.20;99.90;;;;;;4994739;28;20169;-77
2021/08/16 02:41:28;;;;;;;16.03;5.20;;;17.10;99.90;;;;;;4994941;28;20172;-78
2021/08/16 02:43:54;;;;;;;11.50;4.53;;;17.10;99.90;;;;;;5010953;28;20290;-78
2021/08/16 02:46:19;;;;;;;10.23;4.83;;;17.10;99.90;;;;;;5011120;28;20238;-77
2021/08/16 02:48:46;;;;;;;11.67;5.00;;;17.10;99.90;;;;;;4993854;28;20187;-78
2021/08/16 02:51:11;;;;;;;11.50;4.30;;;17.10;99.90;;;;;;4994445;28;20208;-77
2021/08/16 02:53:37;;;;;;;12.07;4.60;;;17.10;99.90;;;;;;4994374;28;20238;-77
2021/08/16 02:56:03;;;;;;;9.23;4.10;;;17.20;99.90;;;;;;4995840;28;20180;-77
2021/08/16 02:58:28;;;;;;;9.57;4.30;;;17.20;99.90;;;;;;4995685;28;20278;-78
2021/08/16 03:00:54;;;;;;;12.00;4.00;;;17.10;99.90;;;;;;4994426;28;20209;-77
2021/08/16 03:03:19;;;;;;;11.93;4.40;;;17.10;99.90;;;;;;4994227;28;20197;-77
2021/08/16 03:05:45;;;;;;;12.53;3.70;;;17.20;99.90;;;;;;5010787;28;20184;-77
2021/08/16 03:08:10;;;;;;;9.47;3.90;;;17.20;99.90;;;;;;4978280;28;20180;-77
2021/08/16 03:10:36;;;;;;;12.77;3.67;;;17.10;99.90;;;;;;5010551;28;20550;-77
2021/08/16 03:13:02;;;;;;;6.47;3.10;;;17.10;99.90;;;;;;4993991;28;20283;-77
2021/08/16 03:15:27;;;;;;;6.83;3.20;;;17.10;99.90;;;;;;4994270;28;20223;-78
2021/08/16 03:17:53;;;;;;;8.40;3.07;;;17.20;99.90;;;;;;4994052;28;20187;-77
2021/08/16 03:20:18;;;;;;;6.53;3.27;;;17.10;99.90;;;;;;5010363;28;20179;-77
2021/08/16 03:22:44;;;;;;;8.43;3.33;;;17.10;99.90;;;;;;4978546;28;20732;-77
2021/08/16 03:25:11;;;;;;;8.80;3.33;;;17.10;99.90;;;;;;5010772;28;20714;-77
2021/08/16 03:27:36;;;;;;;11.17;3.47;;;17.00;99.90;;;;;;4994168;28;20226;-77
2021/08/16 03:30:04;;;;;;;12.10;3.50;;;16.90;99.90;;;;;;4994786;28;20192;-77
2021/08/16 03:32:30;;;;;;;7.93;3.43;;;16.90;99.90;;;;;;4995147;28;20260;-78
2021/08/16 03:34:55;;;;;;;9.57;3.43;;;16.90;99.90;;;;;;4993918;28;20290;-77
2021/08/16 03:37:21;;;;;;;11.33;3.80;;;16.80;99.90;;;;;;4993524;28;20268;-77
2021/08/16 03:39:47;;;;;;;15.30;3.77;;;16.80;99.90;;;;;;4993916;28;20682;-77
2021/08/16 03:42:12;;;;;;;8.50;3.27;;;16.80;99.90;;;;;;4993839;28;20640;-77
2021/08/16 03:44:38;;;;;;;13.70;3.70;;;16.90;99.90;;;;;;4994496;28;20694;-77
2021/08/16 03:47:03;;;;;;;11.10;3.40;;;16.70;99.90;;;;;;4977734;28;20184;-77
2021/08/16 03:49:29;;;;;;;9.43;3.73;;;16.80;99.90;;;;;;4993590;28;20184;-77
2021/08/16 03:51:54;;;;;;;11.80;3.70;;;16.70;99.90;;;;;;4993587;28;20291;-77
2021/08/16 03:54:20;;;;;;;10.83;3.60;;;16.70;99.90;;;;;;5009709;28;20207;-77
2021/08/16 03:56:45;;;;;;;11.93;3.77;;;16.70;99.90;;;;;;4993435;28;20172;-77
2021/08/16 03:59:11;;;;;;;10.53;3.50;;;16.70;99.90;;;;;;4977012;28;20186;-77
2021/08/16 04:01:36;;;;;;;9.67;3.90;;;16.70;99.90;;;;;;4977457;28;20219;-77
2021/08/16 04:04:02;;;;;;;12.53;4.20;;;16.60;99.90;;;;;;4993403;28;20196;-78
2021/08/16 04:06:29;;;;;;;11.57;4.30;;;16.70;99.90;;;;;;5009655;28;20205;-77
2021/08/16 04:08:54;;;;;;;10.20;3.70;;;16.60;99.90;;;;;;5009975;28;20187;-77
2021/08/16 04:11:20;;;;;;;9.13;4.00;;;16.60;99.90;;;;;;4993209;28;20207;-77
2021/08/16 04:13:45;;;;;;;13.73;4.20;;;16.70;99.90;;;;;;5009817;28;20251;-77
2021/08/16 04:16:11;;;;;;;13.63;4.30;;;16.60;99.90;;;;;;4977107;28;20176;-77
2021/08/16 04:18:37;;;;;;;10.37;4.20;;;16.60;99.90;;;;;;4993022;28;20173;-77
2021/08/16 04:21:02;;;;;;;9.97;4.33;;;16.60;99.90;;;;;;4977037;28;20187;-77
2021/08/16 04:23:28;;;;;;;13.10;4.70;;;16.60;99.90;;;;;;4993116;28;20632;-77
2021/08/16 04:25:53;;;;;;;11.40;4.67;;;16.60;99.90;;;;;;4976977;28;20187;-77
2021/08/16 04:28:19;;;;;;;12.17;4.70;;;16.70;99.90;;;;;;4993058;28;20214;-77
2021/08/16 04:30:45;;;;;;;11.87;4.53;;;16.60;99.90;;;;;;4976783;28;20692;-77
2021/08/16 04:33:11;;;;;;;16.80;4.90;;;16.60;99.90;;;;;;4976712;28;20574;-77
2021/08/16 04:35:37;;;;;;;14.90;5.20;;;16.70;99.90;;;;;;4993225;28;20177;-77
2021/08/16 04:38:03;;;;;;;12.73;5.20;;;16.70;99.90;;;;;;4993008;28;20314;-77
2021/08/16 04:40:28;;;;;;;14.73;5.20;;;16.70;99.90;;;;;;4976353;28;20180;-77
2021/08/16 04:42:54;;;;;;;12.30;4.70;;;16.70;99.90;;;;;;4976596;28;20201;-76
2021/08/16 04:45:19;;;;;;;12.17;4.53;;;16.70;99.90;;;;;;4977075;28;20180;-77
2021/08/16 04:47:45;;;;;;;14.30;4.80;;;16.60;99.90;;;;;;4991955;28;20187;-77
2021/08/16 04:50:12;;;;;;;12.60;5.03;;;16.70;99.90;;;;;;4976632;28;20869;-77
2021/08/16 04:52:38;;;;;;;14.30;4.60;;;16.70;99.90;;;;;;5009492;28;20196;-77
2021/08/16 04:55:04;;;;;;;12.27;5.10;;;16.70;99.90;;;;;;4992850;28;20176;-77
2021/08/16 04:57:31;;;;;;;11.67;4.70;;;16.70;99.90;;;;;;4992904;28;20256;-77
2021/08/16 04:59:56;;;;;;;14.40;5.03;;;16.70;99.90;;;;;;4976430;28;20186;-76
2021/08/16 05:02:22;;;;;;;11.70;4.70;;;16.80;99.90;;;;;;4992687;28;20184;-76
2021/08/16 05:04:53;;;;;;;16.37;5.40;;;16.80;99.90;;;;;;5008878;28;20180;-76
2021/08/16 05:07:19;;;;;;;17.27;5.63;;;16.80;99.90;;;;;;4992573;28;20640;-77
2021/08/16 05:09:44;;;;;;;18.93;6.10;;;16.80;99.90;;;;;;4976088;28;20189;-77
2021/08/16 05:12:10;;;;;;;16.17;5.50;;;16.80;99.90;;;;;;5008442;28;20200;-77
2021/08/16 05:14:35;;;;;;;13.10;5.50;;;16.80;99.90;;;;;;4992196;28;20268;-77
2021/08/16 05:17:01;;;;;;;15.23;5.57;;;16.80;99.90;;;;;;5021489;28;20190;-76
2021/08/16 05:19:26;;;;;;;16.63;5.93;;;16.80;99.90;;;;;;4994974;28;20179;-77
2021/08/16 05:21:52;;;;;;;19.47;6.17;;;16.80;99.90;;;;;;5011857;28;20183;-77
2021/08/16 05:24:17;;;;;;;15.73;5.80;;;16.80;99.90;;;;;;5011362;28;20238;-77
2021/08/16 05:26:43;;;;;;;13.23;5.33;;;16.80;99.90;;;;;;4995525;28;20199;-77
2021/08/16 05:29:09;;;;;;;14.20;6.27;;;16.80;99.90;;;;;;4994616;28;20666;-77
2021/08/16 05:31:34;;;;;;;14.77;6.90;;;16.80;99.90;;;;;;5011643;28;20203;-77
2021/08/16 05:34:00;;;;;;;13.70;5.67;;;16.80;99.90;;;;;;4995154;28;20194;-77
2021/08/16 05:36:25;;;;;;;13.00;6.27;;;16.80;99.90;;;;;;4975641;28;20208;-76
2021/08/16 05:38:51;;;;;;;14.47;5.80;;;16.90;99.90;;;;;;4992105;28;20168;-77
2021/08/16 05:41:17;;;;;;;12.87;6.20;;;16.90;99.90;;;;;;4991863;28;20188;-74
2021/08/16 05:45:56;;;;;;;13.57;6.70;;;16.90;99.90;;;;;;5069824;28;20543;-75
2021/08/16 05:48:22;;;;;;;16.30;7.33;;;16.90;99.90;;;;;;5068967;28;20220;-75
2021/08/16 05:50:48;;;;;;;10.53;6.73;;;16.90;99.90;;;;;;5069169;28;20183;-76
2021/08/16 05:53:13;;;;;;;16.83;6.90;;;16.90;99.90;;;;;;5077725;28;20256;-75
2021/08/16 05:55:39;;;;;;;16.77;8.20;;;16.90;99.90;;;;;;5048100;28;20190;-75
2021/08/16 05:58:04;;;;;;;17.10;7.13;;;17.00;99.90;;;;;;5048121;28;20208;-76
2021/08/16 06:00:30;;;;;;;16.77;8.40;;;17.00;99.90;;;;;;5047681;28;20260;-75
2021/08/16 06:02:55;;;;;;;19.23;8.53;;;17.00;99.90;;;;;;5048160;28;20198;-76
2021/08/16 06:05:21;;;;;;;16.67;8.77;;;17.00;99.90;;;;;;5047966;28;20201;-75
2021/08/16 06:07:46;;;;;;;21.67;9.60;;;17.00;99.90;;;;;;5048010;28;20178;-77
2021/08/16 06:10:13;;;;;;;21.47;8.97;;;17.10;99.90;;;;;;5048046;28;20757;-77
2021/08/16 06:12:38;;;;;;;18.60;9.20;;;17.20;99.90;;;;;;5048783;28;20174;-78
2021/08/16 06:15:05;;;;;;;18.50;9.33;;;17.20;99.90;;;;;;5048592;28;20548;-76
2021/08/16 06:17:31;;;;;;;19.20;9.87;;;17.20;99.90;;;;;;5048091;28;20171;-79
2021/08/16 06:19:56;;;;;;;18.43;10.20;;;17.20;99.90;;;;;;5048814;28;20184;-77
2021/08/16 06:22:22;;;;;;;15.23;9.93;;;17.30;99.90;;;;;;5051080;28;20202;-77
2021/08/16 06:24:47;;;;;;;17.20;10.20;;;17.40;99.90;;;;;;5050826;28;20205;-78
2021/08/16 06:27:13;;;;;;;18.17;10.80;;;17.50;99.90;;;;;;5050186;28;20166;-78
2021/08/16 06:29:38;;;;;;;21.37;10.77;;;17.60;99.90;;;;;;5048516;28;20223;-78
2021/08/16 06:32:04;;;;;;;18.17;11.30;;;17.70;99.90;;;;;;5049834;28;20166;-77
2021/08/16 06:34:30;;;;;;;18.07;10.90;;;17.70;99.90;;;;;;5049776;28;20233;-81
2021/08/16 06:36:56;;;;;;;21.70;11.20;;;17.70;99.90;;;;;;5034918;28;20206;-79
2021/08/16 06:39:22;;;;;;;22.47;11.10;;;17.60;99.90;;;;;;5050480;28;20231;-79
2021/08/16 06:41:49;;;;;;;17.83;11.50;;;17.50;99.90;;;;;;5050638;28;20728;-80
2021/08/16 06:44:18;;;;;;;18.80;11.63;;;17.50;99.90;;;;;;5049949;28;20210;-79
2021/08/16 06:46:47;;;;;;;17.87;10.13;;;17.60;99.90;;;;;;5050052;28;20179;-80
2021/08/16 06:49:13;;;;;;;18.40;11.27;;;17.60;99.90;;;;;;5050145;28;20669;-78
2021/08/16 06:51:38;;;;;;;22.43;11.80;;;17.70;99.90;;;;;;5048522;28;20177;-76
2021/08/16 06:54:04;;;;;;;18.97;11.23;;;17.80;99.90;;;;;;5030419;28;20207;-77
2021/08/16 06:56:29;;;;;;;21.83;11.63;;;17.80;99.90;;;;;;5038202;28;20182;-77
2021/08/16 06:58:55;;;;;;;19.17;11.40;;;17.80;99.90;;;;;;5032017;28;20183;-77
2021/08/16 07:01:25;;;;;;;17.83;10.97;;;17.90;99.90;;;;;;5032668;28;20531;-76
2021/08/16 07:03:55;;;;;;;19.27;11.67;;;17.90;99.90;;;;;;5066077;28;20702;-77
2021/08/16 07:06:20;;;;;;;19.67;11.67;;;17.80;99.90;;;;;;5033368;28;20183;-77
2021/08/16 07:08:46;;;;;;;16.40;11.10;;;17.80;99.90;;;;;;5053609;28;20173;-78
2021/08/16 07:11:12;;;;;;;18.53;11.03;;;17.90;99.90;;;;;;5054888;28;20645;-76
2021/08/16 07:13:37;;;;;;;20.23;11.50;;;17.90;99.90;;;;;;5054727;28;20275;-78
2021/08/16 07:16:03;;;;;;;18.30;11.57;;;17.80;99.90;;;;;;5056684;28;20166;-77
2021/08/16 07:18:29;;;;;;;19.60;11.50;;;17.80;99.90;;;;;;5039695;28;20194;-77
2021/08/16 07:20:54;;;;;;;17.50;10.77;;;17.80;99.90;;;;;;5054610;28;20201;-77
2021/08/16 07:23:25;;;;;;;16.47;10.17;;;17.90;99.90;;;;;;5054176;28;20190;-78
2021/08/16 07:25:50;;;;;;;16.97;11.07;;;17.90;99.90;;;;;;5047143;28;20574;-79
2021/08/16 07:28:16;;;;;;;17.17;10.10;;;18.00;99.90;;;;;;5030209;28;20173;-78
2021/08/16 07:30:41;;;;;;;15.27;10.53;;;18.00;99.90;;;;;;5054235;28;20171;-78
2021/08/16 07:33:07;;;;;;;16.37;10.90;;;18.20;99.90;;;;;;5045199;28;20254;-77
2021/08/16 07:35:32;;;;;;;16.73;10.17;;;18.30;99.90;;;;;;5051060;28;20228;-78
2021/08/16 07:37:58;;;;;;;18.67;10.17;;;18.30;99.90;;;;;;5038381;28;20179;-78
2021/08/16 07:40:24;;;;;;;16.40;10.20;;;18.30;99.90;;;;;;5030635;28;20628;-78
2021/08/16 07:42:49;;;;;;;16.50;9.60;;;18.20;99.90;;;;;;5056189;28;20608;-77
2021/08/16 07:45:15;;;;;;;16.17;8.57;;;18.20;99.90;;;;;;5054198;28;20229;-79
2021/08/16 07:47:41;;;;;;;16.17;8.53;;;18.20;99.90;;;;;;5047763;28;20174;-78
2021/08/16 07:50:09;;;;;;;12.93;8.13;;;18.20;99.90;;;;;;5072465;28;20649;-78
2021/08/16 07:52:36;;;;;;;13.23;7.20;;;18.20;99.90;;;;;;5043845;28;20626;-79
2021/08/16 07:55:01;;;;;;;12.40;7.13;;;18.20;99.90;;;;;;5030242;28;20166;-79
2021/08/16 07:57:27;;;;;;;13.83;7.43;;;18.10;99.90;;;;;;5039248;28;20186;-79
2021/08/16 07:59:53;;;;;;;12.80;7.00;;;18.10;99.90;;;;;;5043674;28;20178;-79
2021/08/16 08:02:19;;;;;;;12.70;7.73;;;18.20;99.90;;;;;;5048547;28;20225;-79
2021/08/16 08:04:45;;;;;;;12.63;6.20;;;18.30;99.90;;;;;;5045122;28;20186;-78
2021/08/16 08:07:10;;;;;;;11.87;6.10;;;18.30;99.90;;;;;;5071583;28;20189;-78
2021/08/16 08:09:36;;;;;;;12.13;5.70;;;18.40;99.90;;;;;;5053097;28;20262;-77
2021/08/16 08:12:02;;;;;;;10.03;5.87;;;18.30;99.90;;;;;;5044716;28;20202;-79
2021/08/16 08:14:27;;;;;;;9.33;4.97;;;18.30;99.90;;;;;;5072234;28;20205;-78
2021/08/16 08:16:53;;;;;;;9.73;4.70;;;18.30;99.90;;;;;;5074836;28;20213;-79
2021/08/16 08:19:18;;;;;;;10.13;5.03;;;18.30;99.90;;;;;;5047548;28;20210;-78
2021/08/16 08:21:44;;;;;;;10.50;4.80;;;18.30;99.90;;;;;;5056248;28;20185;-79
2021/08/16 08:24:09;;;;;;;9.87;4.57;;;18.40;99.90;;;;;;5043774;28;20263;-78
2021/08/16 08:26:35;;;;;;;11.37;4.53;;;18.30;99.90;;;;;;5036119;28;20182;-78
2021/08/16 08:29:00;;;;;;;9.50;4.60;;;18.30;99.90;;;;;;5033252;28;20175;-77
2021/08/16 08:31:26;;;;;;;9.87;4.73;;;18.30;99.90;;;;;;5050631;28;20182;-78
2021/08/16 08:33:52;;;;;;;11.00;4.63;;;18.30;99.90;;;;;;5032959;28;20191;-78
2021/08/16 08:36:18;;;;;;;9.67;4.20;;;18.30;99.90;;;;;;5016101;28;20207;-77
2021/08/16 08:38:44;;;;;;;6.97;4.30;;;18.40;99.90;;;;;;5022520;28;20249;-78
2021/08/16 08:41:09;;;;;;;8.20;4.27;;;18.40;99.90;;;;;;5017429;28;20237;-77
2021/08/16 08:43:35;;;;;;;17.03;4.10;;;18.40;99.90;;;;;;5016133;28;20189;-77
2021/08/16 08:46:01;;;;;;;9.80;3.83;;;18.40;99.90;;;;;;5016220;28;20198;-77
2021/08/16 08:48:26;;;;;;;9.83;4.30;;;18.40;99.90;;;;;;5048717;28;20175;-80
2021/08/16 08:50:53;;;;;;;7.63;4.07;;;18.40;99.90;;;;;;5066960;28;20185;-78
2021/08/16 08:53:18;;;;;;;10.07;4.40;;;18.40;99.90;;;;;;5033809;28;20191;-79
2021/08/16 08:55:44;;;;;;;10.33;4.07;;;18.40;99.90;;;;;;5019238;28;20660;-80
2021/08/16 08:58:12;;;;;;;7.00;3.70;;;18.40;99.90;;;;;;5017913;28;20269;-78
2021/08/16 09:00:38;;;;;;;10.73;3.87;;;18.50;99.90;;;;;;5051354;28;20532;-78
2021/08/16 09:03:04;;;;;;;13.63;4.13;;;18.50;99.90;;;;;;5046757;28;20272;-78
2021/08/16 09:05:30;;;;;;;8.77;4.53;;;18.50;99.90;;;;;;5054262;28;20207;-78
2021/08/16 09:07:58;;;;;;;10.90;4.80;;;18.50;99.90;;;;;;5028507;28;20170;-79
2021/08/16 09:10:25;;;;;;;8.47;4.43;;;18.50;99.90;;;;;;5070110;28;20194;-79
2021/08/16 09:12:54;;;;;;;8.00;4.07;;;18.50;99.90;;;;;;5045132;28;20194;-79
2021/08/16 09:15:21;;;;;;;7.20;4.20;;;18.50;99.90;;;;;;5007919;28;20691;-78
2021/08/16 09:17:47;;;;;;;8.83;4.30;;;18.60;99.90;;;;;;5050588;28;20706;-79
2021/08/16 09:20:28;;;;;;;9.20;4.10;;;18.70;99.90;;;;;;5048762;28;20273;-79
2021/08/16 09:23:04;;;;;;;7.50;3.47;;;18.90;99.90;;;;;;5033431;28;20222;-79
2021/08/16 09:25:34;;;;;;;11.40;4.07;;;19.00;99.90;;;;;;5035313;28;20284;-78
2021/08/16 09:27:59;;;;;;;12.83;4.17;;;19.00;99.90;;;;;;5017021;28;20194;-77
2021/08/16 09:30:38;;;;;;;9.77;4.20;;;19.10;99.90;;;;;;5011713;28;20168;-77
2021/08/16 09:33:30;;;;;;;12.03;4.43;;;19.00;99.90;;;;;;5033739;28;20253;-78
2021/08/16 09:35:57;;;;;;;9.67;4.57;;;19.10;99.90;;;;;;5039015;28;20198;-77
2021/08/16 09:38:37;;;;;;;9.30;4.20;;;19.00;99.90;;;;;;5031373;28;20179;-78
2021/08/16 09:41:04;;;;;;;4.97;4.20;;;18.80;99.90;;;;;;5064399;28;20677;-78
2021/08/16 09:43:29;;;;;;;9.23;4.50;;;18.70;99.90;;;;;;5048131;28;20195;-78
2021/08/16 09:45:55;;;;;;;11.37;4.70;;;18.60;99.90;;;;;;5014876;28;20194;-77
2021/08/16 09:48:22;;;;;;;9.23;5.00;;;18.50;99.90;;;;;;5030712;28;20240;-77
2021/08/16 09:50:49;;;;;;;9.53;4.57;;;18.50;99.90;;;;;;5001935;28;20176;-78
2021/08/16 09:53:16;;;;;;;10.87;5.30;;;18.40;99.90;;;;;;5031793;28;20194;-78
2021/08/16 09:55:43;;;;;;;7.43;5.53;;;18.30;99.90;;;;;;5047608;28;20179;-77
2021/08/16 09:58:12;;;;;;;9.30;5.27;;;18.10;99.90;;;;;;5048863;28;20179;-77
2021/08/16 10:00:38;;;;;;;12.27;6.60;;;18.00;99.90;;;;;;5031494;28;20175;-77
2021/08/16 10:03:04;;;;;;;10.27;4.43;;;17.70;99.90;;;;;;5029362;28;20736;-77
2021/08/16 10:05:30;;;;;;;7.37;3.87;;;17.30;99.90;;;;;;5031500;28;20247;-78
2021/08/16 10:07:56;;;;;;;5.53;3.37;;;16.90;99.90;;;;;;5032114;28;20171;-78
2021/08/16 10:10:21;;;;;;;8.37;3.17;;;16.60;99.90;;;;;;5034661;28;20182;-78
2021/08/16 10:12:47;;;;;;;7.70;3.00;;;16.40;99.90;;;;;;5041940;28;20194;-77
2021/08/16 10:15:12;;;;;;;4.40;3.03;;;16.20;99.90;;;;;;5006781;28;20171;-84
2021/08/16 10:17:38;;;;;;;3.23;2.93;;;16.10;99.90;;;;;;5032132;28;20189;-78
2021/08/16 10:20:04;;;;;;;6.57;3.47;;;16.00;99.90;;;;;;5048319;28;20190;-78
2021/08/16 10:22:37;;;;;;;7.47;3.83;;;15.90;99.90;;;;;;5040585;28;20581;-78
2021/08/16 10:25:14;;;;;;;6.27;3.60;;;16.00;99.90;;;;;;5064828;28;20221;-77
2021/08/16 10:27:40;;;;;;;6.80;4.77;;;16.00;99.90;;;;;;5032278;28;20190;-76
2021/08/16 10:30:16;;;;;;;9.47;5.27;;;16.10;99.90;;;;;;5031365;28;20179;-78
2021/08/16 10:32:42;;;;;;;6.40;4.07;;;16.10;99.90;;;;;;5035125;28;20170;-77
2021/08/16 10:35:15;;;;;;;7.10;4.63;;;16.00;99.90;;;;;;5018435;28;20657;-77
2021/08/16 10:37:42;;;;;;;7.00;4.03;;;16.10;99.90;;;;;;5049925;28;20225;-77
2021/08/16 10:40:23;;;;;;;6.50;3.90;;;16.10;99.90;;;;;;5038702;28;20189;-78
2021/08/16 10:42:51;;;;;;;8.00;3.80;;;16.10;99.90;;;;;;5060615;28;20211;-78
2021/08/16 10:45:24;;;;;;;5.10;3.70;;;16.20;99.90;;;;;;5035842;28;20277;-78
2021/08/16 10:47:59;;;;;;;4.43;3.80;;;16.20;99.90;;;;;;5069279;28;20209;-77
2021/08/16 10:50:24;;;;;;;5.43;4.10;;;16.20;99.90;;;;;;5035336;28;20170;-77
2021/08/16 10:53:02;;;;;;;5.53;3.63;;;16.20;99.90;;;;;;5038062;28;20210;-78
2021/08/16 10:55:28;;;;;;;7.67;3.60;;;16.30;99.90;;;;;;5034999;28;20193;-77
2021/08/16 10:57:54;;;;;;;5.27;3.40;;;16.30;99.90;;;;;;5017981;28;20174;-77
2021/08/16 11:00:19;;;;;;;6.57;3.70;;;16.20;99.90;;;;;;5019915;28;20197;-77
2021/08/16 11:02:45;;;;;;;4.57;3.47;;;16.20;99.90;;;;;;5001537;28;20203;-78
2021/08/16 11:05:11;;;;;;;7.03;3.97;;;16.30;99.90;;;;;;5045991;28;20603;-77
2021/08/16 11:07:37;;;;;;;7.43;3.83;;;16.30;99.90;;;;;;5042333;28;20242;-77
2021/08/16 11:10:03;;;;;;;4.80;3.00;;;16.30;99.90;;;;;;5058167;28;20198;-77
2021/08/16 11:12:38;;;;;;;4.50;3.00;;;16.30;99.90;;;;;;5042976;28;20182;-77
2021/08/16 11:15:04;;;;;;;3.90;3.10;;;16.20;99.90;;;;;;5043555;28;20193;-77
2021/08/16 11:17:30;;;;;;;5.90;3.17;;;16.20;99.90;;;;;;5047070;28;20195;-77
2021/08/16 11:19:59;;;;;;;4.80;3.30;;;16.20;99.90;;;;;;5049708;28;20186;-78
2021/08/16 11:22:25;;;;;;;5.47;3.37;;;16.20;99.90;;;;;;5044742;28;20531;-78
2021/08/16 11:24:51;;;;;;;9.33;3.40;;;16.30;99.90;;;;;;5038494;28;20212;-77
2021/08/16 11:27:18;;;;;;;5.47;3.30;;;16.30;99.90;;;;;;5039301;28;20188;-77
2021/08/16 11:29:44;;;;;;;7.23;3.57;;;16.30;99.90;;;;;;5018198;28;20557;-76
2021/08/16 11:32:09;;;;;;;5.30;3.47;;;16.30;99.90;;;;;;5018178;28;20180;-77
2021/08/16 11:34:50;;;;;;;7.33;3.63;;;16.40;99.90;;;;;;5036394;28;20226;-76
2021/08/16 11:37:16;;;;;;;7.83;3.50;;;16.50;99.90;;;;;;5036272;28;20167;-77
2021/08/16 11:39:41;;;;;;;9.23;4.00;;;16.50;99.90;;;;;;5035453;28;20237;-77
2021/08/16 11:42:07;;;;;;;6.07;3.60;;;16.60;99.90;;;;;;5035944;28;20266;-76
2021/08/16 11:44:33;;;;;;;8.97;3.77;;;16.70;99.90;;;;;;5019082;28;20633;-78
2021/08/16 11:46:59;;;;;;;7.43;3.57;;;16.80;99.90;;;;;;5034314;28;20174;-78
2021/08/16 11:49:26;;;;;;;6.60;3.83;;;16.80;99.90;;;;;;5050531;28;20248;-78
2021/08/16 11:51:52;;;;;;;8.37;4.10;;;16.80;99.90;;;;;;5032491;28;20589;-77
2021/08/16 11:54:28;;;;;;;7.57;4.23;;;16.90;99.90;;;;;;5001054;28;20202;-77
2021/08/16 11:56:55;;;;;;;8.50;3.80;;;16.90;99.90;;;;;;5019583;28;20655;-78
2021/08/16 11:59:21;;;;;;;11.47;3.90;;;17.00;99.90;;;;;;5031714;28;20673;-78
2021/08/16 12:01:46;;;;;;;6.80;3.33;;;17.00;99.90;;;;;;5034954;28;20194;-78
2021/08/16 12:04:12;;;;;;;8.23;4.03;;;17.10;99.90;;;;;;5018214;28;20206;-77
2021/08/16 12:06:38;;;;;;;6.27;4.13;;;17.00;99.90;;;;;;5014873;28;20175;-78
2021/08/16 12:09:07;;;;;;;7.90;4.00;;;17.20;99.90;;;;;;5043184;28;20243;-77
2021/08/16 12:11:33;;;;;;;5.53;3.87;;;17.30;99.90;;;;;;5017294;28;20560;-77
2021/08/16 12:13:59;;;;;;;10.93;4.23;;;17.30;99.90;;;;;;5036171;28;20202;-80
2021/08/16 12:16:33;;;;;;;6.47;3.83;;;17.40;99.90;;;;;;5033935;28;20178;-77
2021/08/16 12:18:58;;;;;;;7.33;3.80;;;17.50;99.90;;;;;;5027824;28;20167;-77
2021/08/16 12:21:24;;;;;;;8.20;4.20;;;17.60;99.90;;;;;;5033110;28;20604;-77
2021/08/16 12:23:54;;;;;;;8.17;4.00;;;17.60;99.90;;;;;;5032949;28;20249;-78
2021/08/16 12:26:59;;;;;;;9.30;3.90;;;17.60;99.90;;;;;;5051241;28;20186;-77
2021/08/16 12:29:27;;;;;;;8.93;3.93;;;17.60;99.90;;;;;;5012180;28;20214;-77
2021/08/16 12:31:52;;;;;;;9.93;4.10;;;17.50;99.90;;;;;;5043814;28;20282;-77
2021/08/16 12:34:18;;;;;;;8.07;3.73;;;17.50;99.90;;;;;;5065185;28;20624;-77
2021/08/16 12:36:54;;;;;;;11.20;3.80;;;17.50;99.90;;;;;;5065841;28;20179;-77
2021/08/16 12:39:20;;;;;;;8.13;4.10;;;17.50;99.90;;;;;;5033220;28;20681;-83